Latest Weather Observations for Gooseberry Hill

IDW60901

Issued at 9:01 pm WST Tuesday 28 January 2020 (issued every 10 minutes, with the page automatically refreshed every 10 minutes)

About weather observations | Map of Perth area stations | Latest observations for Perth area | Other Formats
Station Details ID: 009204 Name: GOOSEBERRY HILL Lat: -31.94 Lon: 116.05 Height: 220.0 m
Data from the previous 72 hours. | See also: Recent months at Gooseberry Hill
Date/Time
WST
Temp
°C
App
Temp
°C
Dew
Point
°C
Rel
Hum
%
Delta-T
°C
Wind Press
QNH
hPa
Press
MSL
hPa
Rain since
9am
mm
Dir  Spd
km/h
Gust
km/h
Spd
kts
Gust
kts
28/09:00pm 21.2 19.6 16.6 75 2.8 SW 20 32 11 17 - - -
28/08:30pm 22.0 20.0 15.6 67 3.9 SSW 20 32 11 17 - - -
28/08:00pm 22.7 22.1 16.7 69 3.7 SW 15 22 8 12 - - -
28/07:30pm 23.7 22.5 16.0 62 4.7 SW 17 26 9 14 - - -
28/07:00pm 25.4 23.3 15.1 53 6.3 SW 20 28 11 15 - - -
28/06:30pm 27.2 25.3 15.2 47 7.3 SW 19 28 10 15 - - -
28/06:00pm 28.9 26.8 14.7 42 8.7 SW 19 30 10 16 - - -
28/05:30pm 29.6 25.8 12.5 35 10.1 SW 24 33 13 18 - - -
28/05:00pm 31.0 28.5 14.2 36 10.3 SW 20 33 11 18 - - -
28/04:30pm 31.7 28.7 14.8 36 10.5 SW 24 37 13 20 - - -
28/04:00pm 32.9 30.2 14.5 33 11.4 SW 22 35 12 19 - - -
28/03:30pm 33.8 30.1 13.8 30 12.3 SW 26 37 14 20 - - -
28/03:00pm 34.9 31.1 13.7 28 13.1 SW 26 37 14 20 - - -
28/02:30pm 35.2 30.6 10.9 23 14.4 SW 26 39 14 21 - - -
28/02:00pm 35.7 31.4 10.7 22 14.8 SW 24 37 13 20 - - -
28/01:30pm 35.3 32.0 14.0 28 13.2 SW 24 35 13 19 - - -
28/01:00pm 35.2 31.9 13.9 27 13.2 SW 24 37 13 20 - - -
28/12:30pm 35.9 32.6 14.0 27 13.6 SW 24 33 13 18 - - -
28/12:00pm 36.0 33.3 12.9 25 14.1 SW 19 28 10 15 - - -
28/11:30am 36.0 33.7 12.9 25 14.1 SW 17 28 9 15 - - -
28/11:00am 34.2 31.4 12.5 27 13.1 SW 19 26 10 14 - - -
28/10:30am 33.8 32.5 13.8 30 12.3 SW 13 24 7 13 - - -
28/10:00am 32.8 32.3 13.9 31 11.6 SW 9 15 5 8 - - -
28/09:30am 31.9 31.7 13.6 32 11.1 SW 7 9 4 5 - - -
28/09:00am 29.8 30.1 14.4 39 9.4 SSW 6 11 3 6 - - -
28/08:30am 29.1 30.0 14.1 40 9.1 W 2 7 1 4 - - -
28/08:00am 27.0 28.1 14.7 47 7.5 NE 2 6 1 3 - - -
28/07:30am 25.7 26.5 14.8 51 6.6 ENE 4 9 2 5 - - -
28/07:00am 24.2 24.2 14.3 54 5.9 ESE 7 15 4 8 - - -
28/06:30am 23.8 23.3 13.9 54 5.9 E 9 19 5 10 - - -
28/06:00am 24.2 23.2 13.4 51 6.3 SE 11 22 6 12 - - -
28/05:30am 24.5 21.0 13.4 50 6.5 E 24 41 13 22 - - -
28/05:00am 24.6 18.6 13.2 49 6.7 E 37 50 20 27 - - -
28/04:30am 25.0 18.5 12.9 47 7.1 E 39 54 21 29 - - -
28/04:00am 25.3 20.1 12.9 46 7.3 E 32 46 17 25 - - -
28/03:30am 25.8 20.9 12.6 44 7.7 E 30 39 16 21 - - -
28/03:00am 26.3 21.4 12.4 42 8.1 ESE 30 43 16 23 - - -
28/02:30am 26.5 22.1 12.9 43 8.0 ESE 28 44 15 24 - - -
28/02:00am 26.7 22.7 13.1 43 8.0 ESE 26 39 14 21 - - -
28/01:30am 26.9 23.0 12.2 40 8.6 ESE 24 33 13 18 - - -
28/01:00am 27.8 24.2 11.8 37 9.3 SE 22 35 12 19 - - -
28/12:30am 28.2 24.3 10.9 34 9.9 SE 22 37 12 20 - - -
28/12:00am 28.8 24.3 10.0 31 10.7 SE 24 37 13 20 - - -
 
Date/Time
WST
Temp
°C
App
Temp
°C
Dew
Point
°C
Rel
Hum
%
Delta-T
°C
Wind Press
QNH
hPa
Press
MSL
hPa
Rain since
9am
mm
Dir  Spd
km/h
Gust
km/h
Spd
kts
Gust
kts
27/11:30pm 29.6 25.4 8.1 26 11.9 SE 20 32 11 17 - - -
27/11:00pm 30.3 25.5 7.5 24 12.5 SSE 22 35 12 19 - - -
27/10:30pm 31.4 26.2 3.4 17 14.4 S 20 32 11 17 - - -
27/10:00pm 30.6 27.5 7.1 23 12.8 S 13 26 7 14 - - -
27/09:30pm 30.4 27.8 9.3 27 11.9 S 13 24 7 13 - - -
27/09:00pm 30.1 28.8 11.1 31 11.0 SSW 9 17 5 9 - - -
27/08:30pm 31.0 29.6 10.9 29 11.7 SSW 9 17 5 9 - - -
27/08:00pm 31.6 29.6 10.3 27 12.3 SSW 11 20 6 11 - - -
27/07:30pm 32.3 30.4 9.2 24 13.2 SSW 9 17 5 9 - - -
27/07:00pm 33.9 30.5 9.2 22 14.2 SSW 17 26 9 14 - - -
27/06:30pm 35.1 30.5 8.0 19 15.3 SSW 22 33 12 18 - - -
27/06:00pm 36.4 32.2 8.3 18 16.1 SSW 20 32 11 17 - - -
27/05:30pm 37.0 32.7 7.9 17 16.6 SSW 20 30 11 16 - - -
27/05:00pm 38.1 33.2 7.0 15 17.6 SW 22 30 12 16 - - -
27/04:30pm 38.7 34.4 9.3 17 17.2 SW 22 32 12 17 - - -
27/04:00pm 39.2 35.6 10.5 18 17.2 SW 20 30 11 16 - - -
27/03:30pm 39.2 35.4 9.7 17 17.4 SW 20 33 11 18 - - -
27/03:00pm 39.6 36.0 10.0 17 17.6 SW 19 30 10 16 - - -
27/02:30pm 39.6 36.5 11.7 19 17.0 SW 19 32 10 17 - - -
27/02:00pm 39.0 35.6 11.2 19 16.8 SW 20 35 11 19 - - -
27/01:30pm 40.9 37.4 7.1 13 19.4 WSW 15 24 8 13 - - -
27/01:00pm 40.6 38.8 7.9 14 18.9 WSW 7 13 4 7 - - -
27/12:30pm 39.7 38.4 9.2 16 17.9 NNE 6 15 3 8 - - -
27/12:00pm 38.8 37.8 10.2 18 17.0 ENE 6 15 3 8 - - -
27/11:30am 37.7 35.7 11.6 21 15.8 ENE 13 26 7 14 - - -
27/11:00am 36.8 34.5 11.6 22 15.2 E 15 28 8 15 - - -
27/10:30am 35.0 31.6 11.4 24 14.1 E 20 32 11 17 - - -
27/10:00am 33.2 28.0 11.7 27 12.8 E 30 44 16 24 - - -
27/09:30am 31.7 26.6 12.0 30 11.7 E 30 46 16 25 - - -
27/09:00am 29.7 25.6 12.6 35 10.2 E 26 44 14 24 - - -
27/08:30am 27.5 22.6 12.7 40 8.7 E 30 46 16 25 - - -
27/08:06am 25.6 20.5 13.1 46 7.4 E 32 52 17 28 - - -
27/08:00am 25.0 20.3 13.2 48 6.9 E 30 44 16 24 - - -
27/07:30am 23.3 18.2 13.2 53 5.9 E 32 56 17 30 - - -
27/07:01am 22.4 18.1 13.2 56 5.3 E 28 52 15 28 - - -
27/07:00am 22.3 18.3 13.1 56 5.3 E 26 52 14 28 - - -
27/06:30am 21.6 17.1 12.7 57 5.1 E 28 46 15 25 - - -
27/06:00am 21.4 16.4 12.3 56 5.2 E 30 52 16 28 - - -
27/05:30am 21.6 16.6 12.2 55 5.3 ESE 30 50 16 27 - - -
27/05:01am 22.1 17.5 12.4 54 5.6 ESE 28 50 15 27 - - -
27/05:00am 22.1 17.8 12.1 53 5.7 ESE 26 46 14 25 - - -
27/04:30am 22.6 17.7 12.5 53 5.8 ESE 30 48 16 26 - - -
27/04:25am 22.7 17.8 12.6 53 5.8 ESE 30 48 16 26 - - -
27/04:00am 23.2 18.9 13.1 53 5.9 E 28 43 15 23 - - -
27/03:34am 23.8 19.6 13.4 52 6.1 ESE 28 54 15 29 - - -
27/03:30am 23.8 19.6 13.6 52 6.0 E 28 44 15 24 - - -
27/03:00am 24.5 19.4 13.7 51 6.4 E 33 56 18 30 - - -
27/02:38am 25.1 19.7 13.9 49 6.7 E 35 57 19 31 - - -
27/02:30am 25.2 19.8 14.0 49 6.7 E 35 54 19 29 - - -
27/02:00am 25.5 20.6 14.3 50 6.7 E 33 52 18 28 - - -
27/01:30am 25.9 20.9 14.1 48 7.1 E 33 52 18 28 - - -
27/01:21am 26.0 20.9 13.8 47 7.3 E 33 54 18 29 - - -
27/01:00am 26.3 21.1 13.4 45 7.6 E 33 48 18 26 - - -
27/12:30am 25.8 23.2 13.3 46 7.4 ESE 19 32 10 17 - - -
27/12:00am 27.2 25.0 13.2 42 8.3 SE 17 24 9 13 - - -
 
Date/Time
WST
Temp
°C
App
Temp
°C
Dew
Point
°C
Rel
Hum
%
Delta-T
°C
Wind Press
QNH
hPa
Press
MSL
hPa
Rain since
9am
mm
Dir  Spd
km/h
Gust
km/h
Spd
kts
Gust
kts
26/11:30pm 26.7 24.2 14.1 46 7.6 SE 20 28 11 15 - - -
26/11:00pm 26.8 24.8 13.9 45 7.7 SE 17 28 9 15 - - -
26/10:30pm 28.1 26.9 12.8 38 9.1 SSE 11 19 6 10 - - -
26/10:00pm 28.7 26.7 12.6 37 9.5 SSE 15 26 8 14 - - -
26/09:30pm 27.5 27.4 13.8 43 8.2 SSE 7 15 4 8 - - -
26/09:00pm 27.7 27.4 14.3 43 8.1 SE 9 22 5 12 - - -
26/08:30pm 27.9 26.1 14.5 44 8.1 S 17 33 9 18 - - -
26/08:00pm 28.1 27.4 15.4 46 7.8 SSW 13 20 7 11 - - -
26/07:30pm 28.9 28.2 15.4 44 8.3 SSW 13 20 7 11 - - -
26/07:00pm 30.1 28.3 15.4 41 9.1 SSW 19 35 10 19 - - -
26/06:30pm 30.7 28.7 15.5 39 9.5 SSW 20 28 11 15 - - -
26/06:00pm 31.1 27.8 15.1 38 9.9 SW 26 35 14 19 - - -
26/05:30pm 31.2 27.3 14.4 36 10.3 SSW 28 41 15 22 - - -
26/05:00pm 32.4 28.9 15.4 36 10.6 SSW 28 39 15 21 - - -
26/04:30pm 32.7 28.5 15.7 36 10.7 SW 32 43 17 23 - - -
26/04:00pm 33.3 30.1 15.3 34 11.3 SW 26 35 14 19 - - -
26/03:30pm 34.3 30.2 13.7 29 12.7 SW 28 35 15 19 - - -
26/03:00pm 38.3 37.9 14.2 24 15.1 WSW 9 24 5 13 - - -
26/02:30pm 37.0 34.4 6.1 15 17.1 SSW 9 20 5 11 - - -
26/02:00pm 37.1 36.1 10.4 20 15.8 WSW 6 17 3 9 - - -
26/01:30pm 35.9 34.9 10.9 22 14.8 SE 7 17 4 9 - - -
26/01:00pm 35.4 35.0 12.4 25 13.9 SE 6 11 3 6 - - -
26/12:30pm 35.1 34.4 11.5 24 14.1 ENE 6 13 3 7 - - -
26/12:00pm 34.3 34.1 13.7 29 12.7 E 7 15 4 8 - - -
26/11:30am 33.4 32.4 13.5 30 12.2 ENE 11 19 6 10 - - -
26/11:00am 32.0 31.1 13.7 33 11.2 ENE 11 19 6 10 - - -
26/10:30am 31.9 32.2 15.0 36 10.5 ENE 7 17 4 9 - - -
26/10:00am 30.0 29.0 14.5 38 9.5 ENE 13 22 7 12 - - -
26/09:30am 28.5 27.5 14.7 43 8.4 E 13 24 7 13 - - -
26/09:00am 27.1 26.1 14.5 46 7.6 E 13 26 7 14 - - -
26/08:30am 25.0 21.6 14.8 53 6.2 E 26 39 14 21 - - -
26/08:00am 23.1 19.7 14.7 59 5.0 E 26 39 14 21 - - -
26/07:30am 21.5 17.7 14.6 65 4.1 E 28 39 15 21 - - -
26/07:14am 20.7 16.4 14.4 67 3.7 E 30 48 16 26 - - -
26/07:00am 20.1 15.3 14.0 68 3.6 E 32 50 17 27 - - -
26/06:34am 19.6 14.2 14.0 70 3.3 E 35 56 19 30 - - -
26/06:30am 19.6 13.8 14.0 70 3.3 E 37 56 20 30 - - -
26/06:00am 19.5 14.2 14.1 71 3.1 ESE 35 61 19 33 - - -
26/05:30am 19.9 14.1 13.8 68 3.5 E 37 57 20 31 - - -
26/05:00am 20.4 14.6 13.8 66 3.8 E 37 59 20 32 - - -
26/04:38am 20.9 15.1 13.8 64 4.1 E 37 59 20 32 - - -
26/04:30am 20.9 15.5 13.8 64 4.1 E 35 52 19 28 - - -
26/04:05am 21.4 16.0 13.8 62 4.4 E 35 57 19 31 - - -
26/04:00am 21.5 16.5 13.9 62 4.5 E 33 48 18 26 - - -
26/03:34am 22.0 17.9 13.9 60 4.8 E 28 52 15 28 - - -
26/03:30am 22.1 18.1 14.0 60 4.8 ESE 28 41 15 22 - - -
26/03:06am 22.6 18.5 13.9 58 5.1 ESE 28 50 15 27 - - -
26/03:00am 22.7 18.6 13.7 56 5.3 ESE 28 44 15 24 - - -
26/02:41am 23.0 18.9 13.8 56 5.4 ESE 28 46 15 25 - - -
26/02:30am 23.3 19.2 13.8 55 5.6 ESE 28 43 15 23 - - -
26/02:00am 23.6 21.0 13.8 54 5.8 ESE 20 33 11 18 - - -
26/01:30am 23.3 21.7 14.0 56 5.5 E 15 24 8 13 - - -
26/01:00am 21.8 21.1 14.4 63 4.4 ESE 11 22 6 12 - - -
26/12:30am 21.2 22.0 16.4 74 2.9 S 7 13 4 7 - - -
26/12:00am 21.9 23.2 16.2 70 3.5 ESE 4 6 2 3 - - -
 
Date/Time
WST
Temp
°C
App
Temp
°C
Dew
Point
°C
Rel
Hum
%
Delta-T
°C
Wind Press
QNH
hPa
Press
MSL
hPa
Rain since
9am
mm
Dir  Spd
km/h
Gust
km/h
Spd
kts
Gust
kts
25/11:30pm 21.9 23.7 16.4 71 3.4 ESE 2 6 1 3 - - -
25/11:00pm 21.8 23.6 16.5 72 3.2 E 2 4 1 2 - - -
25/10:30pm 22.0 22.9 16.1 69 3.6 SE 6 11 3 6 - - -
25/10:00pm 22.4 23.6 16.9 71 3.4 S 6 13 3 7 - - -
25/09:30pm 22.4 23.0 16.7 70 3.5 SSW 9 13 5 7 - - -

Latest Capital City Observations: Canberra | Sydney | Melbourne | Brisbane | Adelaide | Perth | Hobart | Darwin

Other formats

Comma delimited format used in spreadsheet applications
http://www.bom.gov.au/fwo/IDW60901/IDW60901.94615.axf

JavaScript Object Notation format (JSON) in row-major order
http://www.bom.gov.au/fwo/IDW60901/IDW60901.94615.json

Data quality

Most of these data are generated automatically and are frequently updated. Quality checks on data are not normally performed. It is possible for incorrect values to appear. Refer to information at About Latest Weather Observations and please check the disclaimer before using these data.